Pagina principale
METAR-TAF:

METAR-TAF

Aeroporti :

Aeroporto di Albenga

Albenga, Italia

latitudine: 44-03N, longitudine: 008-07E, altezza: 45 m

Osservazione

Il bollettino è stato emesso 2 ore e 27 minuti fa, alle 17:50 UTC
Vento 5 kt da sud, variando fra sud-est e sud/sud-ovest
Temperature 32°C
Umidità 36%
Pressione 1013 hPa
Visibilità 10 km o più
nessuna nube inferiore a 1500 m e nessun cumulonembo

METAR: LIMG 231750Z 17005KT 130V210 CAVOK 32/15 Q1013

Ora: 22:17 (20:17 UTC)

Previsione

Il bollettino è stato emesso 9 ore e 17 minuti fa, alle 11:00 UTC
Previsione valida dal 23 alle 12 UTC al 24 alle 12 UTC
Vento 6 kt da direzioni variabili
Visibilità 10 km o più
Poco nuvoloso ad un'altezza di 6000 ft

TAF: LIMG 231100Z 2312/2412 VRB06KT 9999 FEW060

Osservazioni e previsioni meteorologiche di più di 4000 aeroporti (messaggi METAR e TAF).

Le stazioni disponibili sono rappresentate dai dischi gialli e rossi sulla carta.

Puntare il mouse per vedere il nome della stazione.

Clicca sopra per visualizzare le osservazioni e previsioni meteorologiche.

Per cambiare la mappa : fare clic sui pulsanti verdi con una croce nera per ingrandire, il pulsante verde con un trattino per diminuire, o sulla freccia verde per le mappe adiacenti.


METAR-TAF: